sensor_id;sensor_type;location;lat;lon;timestamp;P1;durP1;ratioP1;P2;durP2;ratioP2
38425;SDS011;24210;51.460;6.148;2024-03-08T00:02:13;30.08;;;18.15;;
38425;SDS011;24210;51.460;6.148;2024-03-08T00:04:38;27.10;;;17.43;;
38425;SDS011;24210;51.460;6.148;2024-03-08T00:07:04;23.13;;;16.80;;
38425;SDS011;24210;51.460;6.148;2024-03-08T00:09:29;27.10;;;17.90;;
38425;SDS011;24210;51.460;6.148;2024-03-08T00:11:55;33.13;;;17.77;;
38425;SDS011;24210;51.460;6.148;2024-03-08T00:14:21;24.03;;;17.80;;
38425;SDS011;24210;51.460;6.148;2024-03-08T00:16:46;27.90;;;17.47;;
38425;SDS011;24210;51.460;6.148;2024-03-08T00:19:12;25.00;;;18.07;;
38425;SDS011;24210;51.460;6.148;2024-03-08T00:21:37;22.53;;;16.77;;
38425;SDS011;24210;51.460;6.148;2024-03-08T00:24:02;25.80;;;17.77;;
38425;SDS011;24210;51.460;6.148;2024-03-08T00:26:27;27.53;;;17.63;;
38425;SDS011;24210;51.460;6.148;2024-03-08T00:28:55;27.25;;;17.10;;
38425;SDS011;24210;51.460;6.148;2024-03-08T00:31:20;25.03;;;17.67;;
38425;SDS011;24210;51.460;6.148;2024-03-08T00:33:45;21.27;;;17.00;;
38425;SDS011;24210;51.460;6.148;2024-03-08T00:36:10;22.40;;;16.30;;
38425;SDS011;24210;51.460;6.148;2024-03-08T00:38:36;22.00;;;15.83;;
38425;SDS011;24210;51.460;6.148;2024-03-08T00:41:01;28.50;;;17.37;;
38425;SDS011;24210;51.460;6.148;2024-03-08T00:43:27;26.83;;;18.90;;
38425;SDS011;24210;51.460;6.148;2024-03-08T00:45:52;23.97;;;16.13;;
38425;SDS011;24210;51.460;6.148;2024-03-08T00:48:17;23.97;;;15.90;;
38425;SDS011;24210;51.460;6.148;2024-03-08T00:50:43;25.90;;;17.00;;
38425;SDS011;24210;51.460;6.148;2024-03-08T00:53:10;24.25;;;17.00;;
38425;SDS011;24210;51.460;6.148;2024-03-08T00:55:36;24.80;;;17.63;;
38425;SDS011;24210;51.460;6.148;2024-03-08T00:58:01;26.70;;;19.03;;
38425;SDS011;24210;51.460;6.148;2024-03-08T01:00:26;22.77;;;17.43;;
38425;SDS011;24210;51.460;6.148;2024-03-08T01:02:52;24.48;;;16.40;;
38425;SDS011;24210;51.460;6.148;2024-03-08T01:05:18;26.97;;;17.67;;
38425;SDS011;24210;51.460;6.148;2024-03-08T01:07:44;28.05;;;17.50;;
38425;SDS011;24210;51.460;6.148;2024-03-08T01:10:11;25.02;;;17.83;;
38425;SDS011;24210;51.460;6.148;2024-03-08T01:12:36;24.40;;;16.93;;
38425;SDS011;24210;51.460;6.148;2024-03-08T01:15:02;24.53;;;17.60;;
38425;SDS011;24210;51.460;6.148;2024-03-08T01:17:27;26.70;;;18.10;;
38425;SDS011;24210;51.460;6.148;2024-03-08T01:19:52;24.20;;;18.00;;
38425;SDS011;24210;51.460;6.148;2024-03-08T01:22:18;20.37;;;15.93;;
38425;SDS011;24210;51.460;6.148;2024-03-08T01:24:44;25.70;;;17.17;;
38425;SDS011;24210;51.460;6.148;2024-03-08T01:27:09;25.40;;;17.03;;
38425;SDS011;24210;51.460;6.148;2024-03-08T01:29:34;22.03;;;15.97;;
38425;SDS011;24210;51.460;6.148;2024-03-08T01:31:59;21.63;;;16.77;;
38425;SDS011;24210;51.460;6.148;2024-03-08T01:34:26;20.77;;;15.68;;
38425;SDS011;24210;51.460;6.148;2024-03-08T01:36:53;26.40;;;17.67;;
38425;SDS011;24210;51.460;6.148;2024-03-08T01:39:18;21.53;;;16.87;;
38425;SDS011;24210;51.460;6.148;2024-03-08T01:41:44;29.10;;;19.70;;
38425;SDS011;24210;51.460;6.148;2024-03-08T01:44:09;23.37;;;18.27;;
38425;SDS011;24210;51.460;6.148;2024-03-08T01:46:34;24.67;;;17.40;;
38425;SDS011;24210;51.460;6.148;2024-03-08T01:49:00;22.03;;;18.20;;
38425;SDS011;24210;51.460;6.148;2024-03-08T01:51:26;24.63;;;17.75;;
38425;SDS011;24210;51.460;6.148;2024-03-08T01:53:53;22.05;;;17.60;;
38425;SDS011;24210;51.460;6.148;2024-03-08T01:56:19;23.17;;;17.73;;
38425;SDS011;24210;51.460;6.148;2024-03-08T01:58:44;23.03;;;17.97;;
38425;SDS011;24210;51.460;6.148;2024-03-08T02:01:12;24.70;;;18.52;;
38425;SDS011;24210;51.460;6.148;2024-03-08T02:03:39;27.00;;;17.63;;
38425;SDS011;24210;51.460;6.148;2024-03-08T02:06:05;22.70;;;16.10;;
38425;SDS011;24210;51.460;6.148;2024-03-08T02:08:33;20.35;;;16.85;;
38425;SDS011;24210;51.460;6.148;2024-03-08T02:10:59;23.58;;;17.80;;
38425;SDS011;24210;51.460;6.148;2024-03-08T02:13:25;21.13;;;16.87;;
38425;SDS011;24210;51.460;6.148;2024-03-08T02:15:51;23.60;;;18.00;;
38425;SDS011;24210;51.460;6.148;2024-03-08T02:18:16;21.58;;;17.10;;
38425;SDS011;24210;51.460;6.148;2024-03-08T02:20:42;26.47;;;19.30;;
38425;SDS011;24210;51.460;6.148;2024-03-08T02:23:07;25.57;;;18.67;;
38425;SDS011;24210;51.460;6.148;2024-03-08T02:25:33;21.53;;;17.47;;
38425;SDS011;24210;51.460;6.148;2024-03-08T02:27:58;20.73;;;17.10;;
38425;SDS011;24210;51.460;6.148;2024-03-08T02:30:23;23.57;;;18.27;;
38425;SDS011;24210;51.460;6.148;2024-03-08T02:32:48;23.80;;;18.83;;
38425;SDS011;24210;51.460;6.148;2024-03-08T02:35:14;25.53;;;18.93;;
38425;SDS011;24210;51.460;6.148;2024-03-08T02:37:39;26.03;;;18.97;;
38425;SDS011;24210;51.460;6.148;2024-03-08T02:40:05;28.87;;;19.83;;
38425;SDS011;24210;51.460;6.148;2024-03-08T02:42:30;22.37;;;18.27;;
38425;SDS011;24210;51.460;6.148;2024-03-08T02:44:55;27.27;;;18.93;;
38425;SDS011;24210;51.460;6.148;2024-03-08T02:47:21;23.93;;;17.43;;
38425;SDS011;24210;51.460;6.148;2024-03-08T02:49:46;32.03;;;21.07;;
38425;SDS011;24210;51.460;6.148;2024-03-08T02:52:11;26.10;;;18.33;;
38425;SDS011;24210;51.460;6.148;2024-03-08T02:54:36;27.03;;;20.70;;
38425;SDS011;24210;51.460;6.148;2024-03-08T02:57:01;30.23;;;22.07;;
38425;SDS011;24210;51.460;6.148;2024-03-08T02:59:27;21.87;;;18.63;;
38425;SDS011;24210;51.460;6.148;2024-03-08T03:01:52;24.53;;;19.67;;
38425;SDS011;24210;51.460;6.148;2024-03-08T03:04:17;26.33;;;21.03;;
38425;SDS011;24210;51.460;6.148;2024-03-08T03:06:43;24.53;;;18.43;;
38425;SDS011;24210;51.460;6.148;2024-03-08T03:09:08;30.77;;;21.77;;
38425;SDS011;24210;51.460;6.148;2024-03-08T03:11:35;23.42;;;19.90;;
38425;SDS011;24210;51.460;6.148;2024-03-08T03:14:00;27.27;;;18.60;;
38425;SDS011;24210;51.460;6.148;2024-03-08T03:16:26;23.97;;;18.80;;
38425;SDS011;24210;51.460;6.148;2024-03-08T03:18:51;24.80;;;20.27;;
38425;SDS011;24210;51.460;6.148;2024-03-08T03:21:16;27.90;;;20.17;;
38425;SDS011;24210;51.460;6.148;2024-03-08T03:23:42;24.70;;;19.27;;
38425;SDS011;24210;51.460;6.148;2024-03-08T03:26:08;23.90;;;18.73;;
38425;SDS011;24210;51.460;6.148;2024-03-08T03:28:33;24.13;;;18.13;;
38425;SDS011;24210;51.460;6.148;2024-03-08T03:30:58;27.63;;;19.30;;
38425;SDS011;24210;51.460;6.148;2024-03-08T03:33:24;26.13;;;19.80;;
38425;SDS011;24210;51.460;6.148;2024-03-08T03:35:49;23.80;;;19.43;;
38425;SDS011;24210;51.460;6.148;2024-03-08T03:38:16;27.13;;;19.67;;
38425;SDS011;24210;51.460;6.148;2024-03-08T03:40:42;24.47;;;19.87;;
38425;SDS011;24210;51.460;6.148;2024-03-08T03:43:07;25.47;;;20.33;;
38425;SDS011;24210;51.460;6.148;2024-03-08T03:45:35;25.63;;;19.63;;
38425;SDS011;24210;51.460;6.148;2024-03-08T03:48:01;27.27;;;20.13;;
38425;SDS011;24210;51.460;6.148;2024-03-08T03:50:27;26.02;;;21.27;;
38425;SDS011;24210;51.460;6.148;2024-03-08T03:52:52;26.27;;;20.30;;
38425;SDS011;24210;51.460;6.148;2024-03-08T03:55:18;26.90;;;20.23;;
38425;SDS011;24210;51.460;6.148;2024-03-08T04:00:10;24.45;;;18.85;;
38425;SDS011;24210;51.460;6.148;2024-03-08T04:02:39;27.53;;;20.47;;
38425;SDS011;24210;51.460;6.148;2024-03-08T04:05:05;26.38;;;19.15;;
38425;SDS011;24210;51.460;6.148;2024-03-08T04:07:30;30.05;;;19.38;;
38425;SDS011;24210;51.460;6.148;2024-03-08T04:09:56;26.37;;;19.47;;
38425;SDS011;24210;51.460;6.148;2024-03-08T04:12:21;26.47;;;18.97;;
38425;SDS011;24210;51.460;6.148;2024-03-08T04:14:48;26.63;;;21.58;;
38425;SDS011;24210;51.460;6.148;2024-03-08T04:17:13;27.87;;;19.67;;
38425;SDS011;24210;51.460;6.148;2024-03-08T04:19:38;29.70;;;21.53;;
38425;SDS011;24210;51.460;6.148;2024-03-08T04:22:05;26.92;;;17.17;;
38425;SDS011;24210;51.460;6.148;2024-03-08T04:24:30;25.93;;;21.73;;
38425;SDS011;24210;51.460;6.148;2024-03-08T04:26:56;27.63;;;21.30;;
38425;SDS011;24210;51.460;6.148;2024-03-08T04:29:21;28.50;;;23.13;;
38425;SDS011;24210;51.460;6.148;2024-03-08T04:31:47;29.77;;;19.07;;
38425;SDS011;24210;51.460;6.148;2024-03-08T04:34:12;25.40;;;18.40;;
38425;SDS011;24210;51.460;6.148;2024-03-08T04:36:38;31.00;;;22.80;;
38425;SDS011;24210;51.460;6.148;2024-03-08T04:39:03;33.70;;;23.80;;
38425;SDS011;24210;51.460;6.148;2024-03-08T04:41:28;29.07;;;23.60;;
38425;SDS011;24210;51.460;6.148;2024-03-08T04:46:22;29.17;;;23.15;;
38425;SDS011;24210;51.460;6.148;2024-03-08T04:48:48;33.23;;;24.03;;
38425;SDS011;24210;51.460;6.148;2024-03-08T04:51:13;29.47;;;21.43;;
38425;SDS011;24210;51.460;6.148;2024-03-08T04:53:38;29.70;;;23.73;;
38425;SDS011;24210;51.460;6.148;2024-03-08T04:56:03;29.23;;;21.17;;
38425;SDS011;24210;51.460;6.148;2024-03-08T04:58:40;27.13;;;19.35;;
38425;SDS011;24210;51.460;6.148;2024-03-08T05:01:05;28.80;;;21.63;;
38425;SDS011;24210;51.460;6.148;2024-03-08T05:03:31;28.50;;;19.93;;
38425;SDS011;24210;51.460;6.148;2024-03-08T05:05:56;24.17;;;18.73;;
38425;SDS011;24210;51.460;6.148;2024-03-08T05:08:21;26.63;;;18.83;;
38425;SDS011;24210;51.460;6.148;2024-03-08T05:10:47;32.13;;;21.73;;
38425;SDS011;24210;51.460;6.148;2024-03-08T05:13:12;29.55;;;21.38;;
38425;SDS011;24210;51.460;6.148;2024-03-08T05:15:38;30.87;;;22.13;;
38425;SDS011;24210;51.460;6.148;2024-03-08T05:18:05;28.27;;;21.52;;
38425;SDS011;24210;51.460;6.148;2024-03-08T05:20:30;27.13;;;21.37;;
38425;SDS011;24210;51.460;6.148;2024-03-08T05:22:56;28.30;;;22.43;;
38425;SDS011;24210;51.460;6.148;2024-03-08T05:25:23;31.00;;;21.52;;
38425;SDS011;24210;51.460;6.148;2024-03-08T05:27:49;30.00;;;21.47;;
38425;SDS011;24210;51.460;6.148;2024-03-08T05:30:14;32.73;;;23.20;;
38425;SDS011;24210;51.460;6.148;2024-03-08T05:32:40;29.23;;;22.10;;
38425;SDS011;24210;51.460;6.148;2024-03-08T05:35:09;31.55;;;23.63;;
38425;SDS011;24210;51.460;6.148;2024-03-08T05:37:35;28.77;;;22.05;;
38425;SDS011;24210;51.460;6.148;2024-03-08T05:40:01;32.30;;;22.43;;
38425;SDS011;24210;51.460;6.148;2024-03-08T05:42:26;27.20;;;22.17;;
38425;SDS011;24210;51.460;6.148;2024-03-08T05:44:53;31.02;;;22.27;;
38425;SDS011;24210;51.460;6.148;2024-03-08T05:47:20;28.45;;;23.63;;
38425;SDS011;24210;51.460;6.148;2024-03-08T05:49:45;31.73;;;23.80;;
38425;SDS011;24210;51.460;6.148;2024-03-08T05:52:11;27.13;;;22.80;;
38425;SDS011;24210;51.460;6.148;2024-03-08T05:54:36;31.70;;;22.93;;
38425;SDS011;24210;51.460;6.148;2024-03-08T05:57:02;32.40;;;23.95;;
38425;SDS011;24210;51.460;6.148;2024-03-08T05:59:27;36.53;;;23.27;;
38425;SDS011;24210;51.460;6.148;2024-03-08T06:01:53;29.43;;;20.77;;
38425;SDS011;24210;51.460;6.148;2024-03-08T06:04:18;29.27;;;22.67;;
38425;SDS011;24210;51.460;6.148;2024-03-08T06:06:43;26.47;;;19.57;;
38425;SDS011;24210;51.460;6.148;2024-03-08T06:09:08;32.13;;;23.27;;
38425;SDS011;24210;51.460;6.148;2024-03-08T06:11:36;27.88;;;21.58;;
38425;SDS011;24210;51.460;6.148;2024-03-08T06:14:02;31.15;;;23.05;;
38425;SDS011;24210;51.460;6.148;2024-03-08T06:16:27;30.23;;;21.77;;
38425;SDS011;24210;51.460;6.148;2024-03-08T06:18:54;33.33;;;23.58;;
38425;SDS011;24210;51.460;6.148;2024-03-08T06:21:20;29.95;;;23.02;;
38425;SDS011;24210;51.460;6.148;2024-03-08T06:23:46;34.97;;;22.67;;
38425;SDS011;24210;51.460;6.148;2024-03-08T06:26:11;30.67;;;22.17;;
38425;SDS011;24210;51.460;6.148;2024-03-08T06:28:36;30.27;;;20.80;;
38425;SDS011;24210;51.460;6.148;2024-03-08T06:31:02;28.23;;;19.43;;
38425;SDS011;24210;51.460;6.148;2024-03-08T06:33:27;31.03;;;21.30;;
38425;SDS011;24210;51.460;6.148;2024-03-08T06:35:53;27.60;;;18.57;;
38425;SDS011;24210;51.460;6.148;2024-03-08T06:38:22;30.27;;;22.17;;
38425;SDS011;24210;51.460;6.148;2024-03-08T06:40:47;29.10;;;20.43;;
38425;SDS011;24210;51.460;6.148;2024-03-08T06:43:13;31.83;;;21.43;;
38425;SDS011;24210;51.460;6.148;2024-03-08T06:45:41;28.45;;;19.10;;
38425;SDS011;24210;51.460;6.148;2024-03-08T06:48:06;29.27;;;20.07;;
38425;SDS011;24210;51.460;6.148;2024-03-08T06:50:34;29.65;;;21.35;;
38425;SDS011;24210;51.460;6.148;2024-03-08T06:53:01;27.25;;;20.10;;
38425;SDS011;24210;51.460;6.148;2024-03-08T06:55:28;27.77;;;21.55;;
38425;SDS011;24210;51.460;6.148;2024-03-08T06:57:53;32.23;;;21.53;;
38425;SDS011;24210;51.460;6.148;2024-03-08T07:00:19;28.90;;;20.87;;
38425;SDS011;24210;51.460;6.148;2024-03-08T07:02:46;31.15;;;20.90;;
38425;SDS011;24210;51.460;6.148;2024-03-08T07:05:11;33.40;;;25.13;;
38425;SDS011;24210;51.460;6.148;2024-03-08T07:07:37;34.50;;;22.70;;
38425;SDS011;24210;51.460;6.148;2024-03-08T07:10:02;31.63;;;25.52;;
38425;SDS011;24210;51.460;6.148;2024-03-08T07:12:28;34.60;;;24.73;;
38425;SDS011;24210;51.460;6.148;2024-03-08T07:14:53;33.10;;;25.83;;
38425;SDS011;24210;51.460;6.148;2024-03-08T07:17:19;32.65;;;23.63;;
38425;SDS011;24210;51.460;6.148;2024-03-08T07:19:44;36.47;;;26.97;;
38425;SDS011;24210;51.460;6.148;2024-03-08T07:22:10;36.50;;;25.73;;
38425;SDS011;24210;51.460;6.148;2024-03-08T07:24:35;34.20;;;27.57;;
38425;SDS011;24210;51.460;6.148;2024-03-08T07:27:04;33.88;;;25.10;;
38425;SDS011;24210;51.460;6.148;2024-03-08T07:29:30;27.30;;;18.60;;
38425;SDS011;24210;51.460;6.148;2024-03-08T07:31:55;32.97;;;25.70;;
38425;SDS011;24210;51.460;6.148;2024-03-08T07:34:20;34.00;;;26.73;;
38425;SDS011;24210;51.460;6.148;2024-03-08T07:36:46;37.90;;;23.97;;
38425;SDS011;24210;51.460;6.148;2024-03-08T07:39:11;30.73;;;23.70;;
38425;SDS011;24210;51.460;6.148;2024-03-08T07:41:37;29.23;;;22.80;;
38425;SDS011;24210;51.460;6.148;2024-03-08T07:44:02;34.03;;;24.10;;
38425;SDS011;24210;51.460;6.148;2024-03-08T07:46:28;32.67;;;24.35;;
38425;SDS011;24210;51.460;6.148;2024-03-08T07:48:54;34.20;;;24.90;;
38425;SDS011;24210;51.460;6.148;2024-03-08T07:51:19;36.33;;;24.20;;
38425;SDS011;24210;51.460;6.148;2024-03-08T07:53:45;32.42;;;20.17;;
38425;SDS011;24210;51.460;6.148;2024-03-08T07:56:10;40.70;;;26.13;;
38425;SDS011;24210;51.460;6.148;2024-03-08T07:58:38;30.83;;;21.35;;
38425;SDS011;24210;51.460;6.148;2024-03-08T08:01:05;36.35;;;25.48;;
38425;SDS011;24210;51.460;6.148;2024-03-08T08:03:30;32.83;;;25.17;;
38425;SDS011;24210;51.460;6.148;2024-03-08T08:05:56;35.33;;;26.20;;
38425;SDS011;24210;51.460;6.148;2024-03-08T08:08:21;33.43;;;21.13;;
38425;SDS011;24210;51.460;6.148;2024-03-08T08:10:46;36.97;;;24.70;;
38425;SDS011;24210;51.460;6.148;2024-03-08T08:13:12;35.10;;;23.33;;
38425;SDS011;24210;51.460;6.148;2024-03-08T08:15:37;30.17;;;23.53;;
38425;SDS011;24210;51.460;6.148;2024-03-08T08:18:03;36.57;;;23.47;;
38425;SDS011;24210;51.460;6.148;2024-03-08T08:20:30;37.90;;;26.52;;
38425;SDS011;24210;51.460;6.148;2024-03-08T08:22:56;36.35;;;26.63;;
38425;SDS011;24210;51.460;6.148;2024-03-08T08:25:21;33.40;;;26.67;;
38425;SDS011;24210;51.460;6.148;2024-03-08T08:27:49;37.88;;;27.02;;
38425;SDS011;24210;51.460;6.148;2024-03-08T08:30:14;30.70;;;22.30;;
38425;SDS011;24210;51.460;6.148;2024-03-08T08:32:40;23.50;;;14.33;;
38425;SDS011;24210;51.460;6.148;2024-03-08T08:35:07;22.08;;;15.48;;
38425;SDS011;24210;51.460;6.148;2024-03-08T08:37:34;36.00;;;23.83;;
38425;SDS011;24210;51.460;6.148;2024-03-08T08:40:02;34.10;;;27.15;;
38425;SDS011;24210;51.460;6.148;2024-03-08T08:42:34;28.63;;;18.20;;
38425;SDS011;24210;51.460;6.148;2024-03-08T08:44:59;28.13;;;19.23;;
38425;SDS011;24210;51.460;6.148;2024-03-08T08:47:29;32.42;;;21.52;;
38425;SDS011;24210;51.460;6.148;2024-03-08T08:49:54;30.80;;;25.23;;
38425;SDS011;24210;51.460;6.148;2024-03-08T08:52:19;33.87;;;20.60;;
38425;SDS011;24210;51.460;6.148;2024-03-08T08:54:45;30.53;;;23.27;;
38425;SDS011;24210;51.460;6.148;2024-03-08T08:57:10;31.93;;;21.73;;
38425;SDS011;24210;51.460;6.148;2024-03-08T08:59:35;36.53;;;26.37;;
38425;SDS011;24210;51.460;6.148;2024-03-08T09:02:01;29.83;;;21.27;;
38425;SDS011;24210;51.460;6.148;2024-03-08T09:04:26;32.30;;;17.07;;
38425;SDS011;24210;51.460;6.148;2024-03-08T09:06:51;30.30;;;23.60;;
38425;SDS011;24210;51.460;6.148;2024-03-08T09:09:17;34.33;;;25.53;;
38425;SDS011;24210;51.460;6.148;2024-03-08T09:11:42;33.40;;;24.17;;
38425;SDS011;24210;51.460;6.148;2024-03-08T09:14:07;31.47;;;21.50;;
38425;SDS011;24210;51.460;6.148;2024-03-08T09:16:33;21.95;;;14.55;;
38425;SDS011;24210;51.460;6.148;2024-03-08T09:18:59;26.37;;;17.67;;
38425;SDS011;24210;51.460;6.148;2024-03-08T09:21:24;36.33;;;26.33;;
38425;SDS011;24210;51.460;6.148;2024-03-08T09:23:50;30.53;;;20.60;;
38425;SDS011;24210;51.460;6.148;2024-03-08T09:26:15;34.67;;;24.17;;
38425;SDS011;24210;51.460;6.148;2024-03-08T09:28:40;31.67;;;23.20;;
38425;SDS011;24210;51.460;6.148;2024-03-08T09:31:06;34.13;;;24.33;;
38425;SDS011;24210;51.460;6.148;2024-03-08T09:33:31;30.90;;;24.93;;
38425;SDS011;24210;51.460;6.148;2024-03-08T09:35:56;35.53;;;24.57;;
38425;SDS011;24210;51.460;6.148;2024-03-08T09:38:22;32.17;;;25.80;;
38425;SDS011;24210;51.460;6.148;2024-03-08T09:40:48;34.90;;;25.33;;
38425;SDS011;24210;51.460;6.148;2024-03-08T09:43:13;31.37;;;24.07;;
38425;SDS011;24210;51.460;6.148;2024-03-08T09:45:38;30.77;;;23.20;;
38425;SDS011;24210;51.460;6.148;2024-03-08T09:48:07;28.38;;;24.55;;
38425;SDS011;24210;51.460;6.148;2024-03-08T09:50:34;35.00;;;21.83;;
38425;SDS011;24210;51.460;6.148;2024-03-08T09:53:00;35.40;;;25.87;;
38425;SDS011;24210;51.460;6.148;2024-03-08T09:55:25;37.90;;;22.83;;
38425;SDS011;24210;51.460;6.148;2024-03-08T09:57:53;31.88;;;22.85;;
38425;SDS011;24210;51.460;6.148;2024-03-08T10:00:38;31.85;;;25.58;;
38425;SDS011;24210;51.460;6.148;2024-03-08T10:03:03;30.33;;;20.10;;
38425;SDS011;24210;51.460;6.148;2024-03-08T10:05:30;29.73;;;21.00;;
38425;SDS011;24210;51.460;6.148;2024-03-08T10:07:57;30.25;;;22.23;;
38425;SDS011;24210;51.460;6.148;2024-03-08T10:10:23;28.27;;;25.23;;
38425;SDS011;24210;51.460;6.148;2024-03-08T10:12:49;32.57;;;23.47;;
38425;SDS011;24210;51.460;6.148;2024-03-08T10:15:15;32.30;;;26.00;;
38425;SDS011;24210;51.460;6.148;2024-03-08T10:17:41;27.73;;;21.15;;
38425;SDS011;24210;51.460;6.148;2024-03-08T10:20:14;30.65;;;24.58;;
38425;SDS011;24210;51.460;6.148;2024-03-08T10:22:40;30.67;;;22.80;;
38425;SDS011;24210;51.460;6.148;2024-03-08T10:25:07;33.05;;;20.73;;
38425;SDS011;24210;51.460;6.148;2024-03-08T10:27:35;28.88;;;22.20;;
38425;SDS011;24210;51.460;6.148;2024-03-08T10:30:00;25.73;;;15.87;;
38425;SDS011;24210;51.460;6.148;2024-03-08T10:32:26;29.40;;;22.47;;
38425;SDS011;24210;51.460;6.148;2024-03-08T10:34:51;26.27;;;22.50;;
38425;SDS011;24210;51.460;6.148;2024-03-08T10:37:17;29.10;;;22.47;;
38425;SDS011;24210;51.460;6.148;2024-03-08T10:39:50;22.25;;;18.73;;
38425;SDS011;24210;51.460;6.148;2024-03-08T10:42:19;18.30;;;15.45;;
38425;SDS011;24210;51.460;6.148;2024-03-08T10:44:57;23.35;;;16.35;;
38425;SDS011;24210;51.460;6.148;2024-03-08T10:47:26;19.20;;;14.98;;
38425;SDS011;24210;51.460;6.148;2024-03-08T10:49:58;16.85;;;13.48;;
38425;SDS011;24210;51.460;6.148;2024-03-08T10:52:29;18.73;;;16.75;;
38425;SDS011;24210;51.460;6.148;2024-03-08T10:54:54;18.07;;;16.10;;
38425;SDS011;24210;51.460;6.148;2024-03-08T10:57:20;17.65;;;15.45;;
38425;SDS011;24210;51.460;6.148;2024-03-08T10:59:49;19.92;;;15.88;;
38425;SDS011;24210;51.460;6.148;2024-03-08T11:02:14;18.33;;;16.17;;
38425;SDS011;24210;51.460;6.148;2024-03-08T11:04:45;15.40;;;13.13;;
38425;SDS011;24210;51.460;6.148;2024-03-08T11:07:10;16.17;;;14.00;;
38425;SDS011;24210;51.460;6.148;2024-03-08T11:09:42;23.65;;;17.95;;
38425;SDS011;24210;51.460;6.148;2024-03-08T11:12:22;27.23;;;20.55;;
38425;SDS011;24210;51.460;6.148;2024-03-08T11:14:51;24.88;;;15.57;;
38425;SDS011;24210;51.460;6.148;2024-03-08T11:19:48;27.48;;;18.88;;
38425;SDS011;24210;51.460;6.148;2024-03-08T11:22:23;25.17;;;18.87;;
38425;SDS011;24210;51.460;6.148;2024-03-08T11:24:52;23.48;;;18.33;;
38425;SDS011;24210;51.460;6.148;2024-03-08T11:27:17;16.80;;;14.60;;
38425;SDS011;24210;51.460;6.148;2024-03-08T11:29:43;23.93;;;19.20;;
38425;SDS011;24210;51.460;6.148;2024-03-08T11:34:34;19.27;;;15.73;;
38425;SDS011;24210;51.460;6.148;2024-03-08T11:37:00;16.17;;;14.57;;
38425;SDS011;24210;51.460;6.148;2024-03-08T11:39:25;17.97;;;16.07;;
38425;SDS011;24210;51.460;6.148;2024-03-08T11:41:51;16.60;;;14.20;;
38425;SDS011;24210;51.460;6.148;2024-03-08T11:44:16;17.37;;;15.67;;
38425;SDS011;24210;51.460;6.148;2024-03-08T11:46:43;17.63;;;15.82;;
38425;SDS011;24210;51.460;6.148;2024-03-08T11:49:12;19.95;;;13.52;;
38425;SDS011;24210;51.460;6.148;2024-03-08T11:51:38;16.17;;;14.27;;
38425;SDS011;24210;51.460;6.148;2024-03-08T11:54:03;16.87;;;12.17;;
38425;SDS011;24210;51.460;6.148;2024-03-08T11:56:28;15.30;;;13.80;;
38425;SDS011;24210;51.460;6.148;2024-03-08T11:58:54;15.67;;;12.57;;
38425;SDS011;24210;51.460;6.148;2024-03-08T12:01:23;14.02;;;12.50;;
38425;SDS011;24210;51.460;6.148;2024-03-08T12:03:55;12.70;;;11.10;;
38425;SDS011;24210;51.460;6.148;2024-03-08T12:06:23;15.07;;;12.57;;
38425;SDS011;24210;51.460;6.148;2024-03-08T12:08:49;13.53;;;11.40;;
38425;SDS011;24210;51.460;6.148;2024-03-08T12:11:15;14.82;;;12.27;;
38425;SDS011;24210;51.460;6.148;2024-03-08T12:13:43;12.38;;;11.18;;
38425;SDS011;24210;51.460;6.148;2024-03-08T12:16:11;12.38;;;10.48;;
38425;SDS011;24210;51.460;6.148;2024-03-08T12:18:37;14.67;;;11.23;;
38425;SDS011;24210;51.460;6.148;2024-03-08T12:21:06;13.70;;;11.07;;
38425;SDS011;24210;51.460;6.148;2024-03-08T12:23:35;13.38;;;10.63;;
38425;SDS011;24210;51.460;6.148;2024-03-08T12:26:17;13.80;;;11.55;;
38425;SDS011;24210;51.460;6.148;2024-03-08T12:28:43;12.48;;;11.27;;
38425;SDS011;24210;51.460;6.148;2024-03-08T12:31:09;13.37;;;9.83;;
38425;SDS011;24210;51.460;6.148;2024-03-08T12:33:37;13.57;;;11.15;;
38425;SDS011;24210;51.460;6.148;2024-03-08T12:36:02;13.02;;;11.73;;
38425;SDS011;24210;51.460;6.148;2024-03-08T12:38:32;14.20;;;11.55;;
38425;SDS011;24210;51.460;6.148;2024-03-08T12:41:00;13.00;;;10.90;;
38425;SDS011;24210;51.460;6.148;2024-03-08T12:43:26;13.95;;;11.50;;
38425;SDS011;24210;51.460;6.148;2024-03-08T12:45:55;15.13;;;11.77;;
38425;SDS011;24210;51.460;6.148;2024-03-08T12:48:20;13.37;;;11.97;;
38425;SDS011;24210;51.460;6.148;2024-03-08T12:50:45;11.67;;;10.57;;
38425;SDS011;24210;51.460;6.148;2024-03-08T12:53:12;12.15;;;10.45;;
38425;SDS011;24210;51.460;6.148;2024-03-08T12:55:38;14.27;;;11.73;;
38425;SDS011;24210;51.460;6.148;2024-03-08T12:58:03;12.50;;;10.73;;
38425;SDS011;24210;51.460;6.148;2024-03-08T13:00:32;15.10;;;11.13;;
38425;SDS011;24210;51.460;6.148;2024-03-08T13:02:58;13.10;;;11.57;;
38425;SDS011;24210;51.460;6.148;2024-03-08T13:05:24;12.63;;;11.32;;
38425;SDS011;24210;51.460;6.148;2024-03-08T13:07:49;12.10;;;10.87;;
38425;SDS011;24210;51.460;6.148;2024-03-08T13:10:15;13.60;;;12.00;;
38425;SDS011;24210;51.460;6.148;2024-03-08T13:12:41;13.98;;;12.05;;
38425;SDS011;24210;51.460;6.148;2024-03-08T13:15:07;12.05;;;10.80;;
38425;SDS011;24210;51.460;6.148;2024-03-08T13:17:33;12.93;;;11.63;;
38425;SDS011;24210;51.460;6.148;2024-03-08T13:19:59;13.67;;;10.43;;
38425;SDS011;24210;51.460;6.148;2024-03-08T13:22:24;12.20;;;11.00;;
38425;SDS011;24210;51.460;6.148;2024-03-08T13:24:50;14.87;;;11.53;;
38425;SDS011;24210;51.460;6.148;2024-03-08T13:27:17;12.95;;;11.57;;
38425;SDS011;24210;51.460;6.148;2024-03-08T13:29:46;12.65;;;11.35;;
38425;SDS011;24210;51.460;6.148;2024-03-08T13:32:12;12.27;;;11.07;;
38425;SDS011;24210;51.460;6.148;2024-03-08T13:34:40;12.47;;;10.77;;
38425;SDS011;24210;51.460;6.148;2024-03-08T13:37:05;14.30;;;12.50;;
38425;SDS011;24210;51.460;6.148;2024-03-08T13:39:31;14.43;;;11.30;;
38425;SDS011;24210;51.460;6.148;2024-03-08T13:42:06;12.43;;;11.18;;
38425;SDS011;24210;51.460;6.148;2024-03-08T13:44:34;13.35;;;12.02;;
38425;SDS011;24210;51.460;6.148;2024-03-08T13:46:59;20.60;;;17.80;;
38425;SDS011;24210;51.460;6.148;2024-03-08T13:49:25;20.53;;;16.57;;
38425;SDS011;24210;51.460;6.148;2024-03-08T13:51:51;19.00;;;16.40;;
38425;SDS011;24210;51.460;6.148;2024-03-08T13:54:16;19.73;;;13.63;;
38425;SDS011;24210;51.460;6.148;2024-03-08T13:56:42;18.40;;;14.63;;
38425;SDS011;24210;51.460;6.148;2024-03-08T13:59:09;20.63;;;16.35;;
38425;SDS011;24210;51.460;6.148;2024-03-08T14:01:34;22.50;;;14.57;;
38425;SDS011;24210;51.460;6.148;2024-03-08T14:04:01;18.98;;;16.42;;
38425;SDS011;24210;51.460;6.148;2024-03-08T14:06:26;15.63;;;11.50;;
38425;SDS011;24210;51.460;6.148;2024-03-08T14:08:51;17.27;;;12.77;;
38425;SDS011;24210;51.460;6.148;2024-03-08T14:11:16;12.87;;;10.77;;
38425;SDS011;24210;51.460;6.148;2024-03-08T14:13:43;13.07;;;10.75;;
38425;SDS011;24210;51.460;6.148;2024-03-08T14:16:12;15.25;;;13.57;;
38425;SDS011;24210;51.460;6.148;2024-03-08T14:18:38;13.10;;;11.03;;
38425;SDS011;24210;51.460;6.148;2024-03-08T14:21:04;12.77;;;11.27;;
38425;SDS011;24210;51.460;6.148;2024-03-08T14:23:29;12.57;;;9.77;;
38425;SDS011;24210;51.460;6.148;2024-03-08T14:25:54;15.33;;;10.67;;